Time;durP1;ratioP1;P1;durP2;ratioP2;P2;SDS_P1;SDS_P2;PMS_P1;PMS_P2;Temp;Humidity;BMP_temperature;BMP_pressure;BME280_temperature;BME280_humidity;BME280_pressure;Samples;Min_cycle;Max_cycle;Signal;HPM_P1;HPM_P2
2021/09/14 00:01:42;;;;;;;12.90;6.30;;;14.60;99.90;;;;;;4969082;28;20555;-61
2021/09/14 00:04:08;;;;;;;9.77;7.10;;;14.60;99.90;;;;;;4971095;28;20181;-62
2021/09/14 00:06:38;;;;;;;12.07;7.30;;;14.60;99.90;;;;;;4970501;28;20190;-61
2021/09/14 00:09:04;;;;;;;11.00;7.10;;;14.50;99.90;;;;;;4965019;28;20233;-62
2021/09/14 00:11:30;;;;;;;10.67;7.10;;;14.50;99.90;;;;;;4971676;28;20491;-63
2021/09/14 00:13:56;;;;;;;10.83;7.47;;;14.50;99.90;;;;;;4972864;28;20528;-64
2021/09/14 00:16:21;;;;;;;8.87;6.40;;;14.50;99.90;;;;;;4984413;28;20716;-62
2021/09/14 00:18:47;;;;;;;12.23;7.37;;;14.40;99.90;;;;;;4972196;28;20212;-60
2021/09/14 00:21:12;;;;;;;14.30;7.47;;;14.40;99.90;;;;;;4962336;28;20212;-61
2021/09/14 00:23:38;;;;;;;10.50;7.07;;;14.40;99.90;;;;;;4972329;28;20213;-61
2021/09/14 00:26:04;;;;;;;20.83;7.70;;;14.40;99.90;;;;;;4968337;28;20210;-61
2021/09/14 00:28:29;;;;;;;12.30;7.30;;;14.40;99.90;;;;;;4983346;28;20543;-61
2021/09/14 00:30:55;;;;;;;11.03;7.73;;;14.30;99.90;;;;;;4972707;28;20213;-62
2021/09/14 00:33:21;;;;;;;7.50;6.53;;;14.30;99.90;;;;;;4973029;28;20241;-61
2021/09/14 00:35:46;;;;;;;7.93;6.90;;;14.30;99.90;;;;;;4967432;28;20578;-61
2021/09/14 00:38:12;;;;;;;8.53;6.60;;;14.30;99.90;;;;;;4970671;28;20185;-61
2021/09/14 00:40:37;;;;;;;10.90;6.20;;;14.30;99.90;;;;;;4971139;28;20293;-62
2021/09/14 00:43:03;;;;;;;9.50;6.90;;;14.20;99.90;;;;;;4971051;28;20276;-61
2021/09/14 00:45:29;;;;;;;8.57;6.80;;;14.20;99.90;;;;;;4968897;28;20193;-62
2021/09/14 00:47:54;;;;;;;10.20;7.03;;;14.20;99.90;;;;;;4971508;28;20185;-61
2021/09/14 00:50:20;;;;;;;13.30;6.93;;;14.20;99.90;;;;;;4986696;28;20202;-62
2021/09/14 00:52:46;;;;;;;14.97;7.10;;;14.10;99.90;;;;;;4966897;28;20198;-62
2021/09/14 00:55:11;;;;;;;14.90;6.83;;;14.10;99.90;;;;;;4969779;28;20582;-61
2021/09/14 00:57:37;;;;;;;13.97;7.63;;;14.10;99.90;;;;;;4971212;28;20574;-61
2021/09/14 01:00:05;;;;;;;10.20;7.17;;;14.10;99.90;;;;;;4986027;28;20209;-61
2021/09/14 01:02:31;;;;;;;10.47;7.37;;;14.10;99.90;;;;;;4979742;28;20271;-61
2021/09/14 01:04:57;;;;;;;12.37;7.03;;;14.00;99.90;;;;;;4975435;28;20564;-62
2021/09/14 01:07:23;;;;;;;11.23;6.50;;;14.00;99.90;;;;;;4971676;28;20268;-61
2021/09/14 01:09:49;;;;;;;13.30;6.40;;;14.00;99.90;;;;;;4965726;28;20604;-62
2021/09/14 01:12:18;;;;;;;16.60;6.97;;;14.00;99.90;;;;;;4970349;28;20264;-61
2021/09/14 01:14:54;;;;;;;12.80;7.90;;;14.00;99.90;;;;;;4972436;28;20428;-61
2021/09/14 01:17:20;;;;;;;14.70;7.27;;;14.00;99.90;;;;;;4969658;28;20584;-61
2021/09/14 01:19:46;;;;;;;7.70;6.00;;;14.00;99.90;;;;;;4972293;28;20532;-61
2021/09/14 01:22:14;;;;;;;11.27;6.60;;;14.00;99.90;;;;;;4974217;28;20259;-61
2021/09/14 01:24:40;;;;;;;9.63;6.13;;;14.00;99.90;;;;;;4977993;28;20456;-61
2021/09/14 01:27:05;;;;;;;7.53;6.53;;;14.00;99.90;;;;;;4974525;28;20414;-62
2021/09/14 01:32:15;;;;;;;11.27;7.33;;;14.00;99.90;;;;;;4971688;28;20233;-63
2021/09/14 01:34:41;;;;;;;12.93;6.27;;;13.90;99.90;;;;;;4959094;28;20438;-61
2021/09/14 01:37:07;;;;;;;7.93;6.60;;;13.90;99.90;;;;;;4981853;28;20257;-61
2021/09/14 01:39:33;;;;;;;7.67;6.27;;;13.90;99.90;;;;;;4970500;28;20205;-62
2021/09/14 01:41:58;;;;;;;8.97;6.57;;;13.90;99.90;;;;;;4968619;28;20625;-61
2021/09/14 01:44:24;;;;;;;7.93;5.90;;;13.90;99.90;;;;;;4988001;28;20273;-64
2021/09/14 01:46:52;;;;;;;12.70;6.90;;;13.90;99.90;;;;;;4971906;28;20200;-61
2021/09/14 01:49:17;;;;;;;16.70;6.53;;;13.80;99.90;;;;;;4976472;28;20682;-61
2021/09/14 01:51:43;;;;;;;20.00;6.80;;;13.80;99.90;;;;;;4967101;28;20467;-61
2021/09/14 01:54:09;;;;;;;7.87;6.53;;;13.70;99.90;;;;;;4980851;28;20308;-62
2021/09/14 01:56:35;;;;;;;19.23;7.37;;;13.70;99.90;;;;;;4978877;28;20174;-61
2021/09/14 01:59:01;;;;;;;8.20;6.57;;;13.60;99.90;;;;;;4969835;28;20942;-61
2021/09/14 02:01:34;;;;;;;14.80;6.70;;;13.60;99.90;;;;;;4967751;28;20447;-61
2021/09/14 02:04:12;;;;;;;8.20;6.00;;;13.60;99.90;;;;;;4970943;28;20384;-61
2021/09/14 02:39:52;;;;;;;14.60;6.00;;;13.30;99.90;;;;;;5050080;28;20417;-60
2021/09/14 02:42:25;;;;;;;23.97;6.30;;;13.30;99.90;;;;;;5040960;28;20415;-58
2021/09/14 02:58:41;;;;;;;9.00;6.70;;;13.10;99.90;;;;;;5024526;28;20397;-59
2021/09/14 03:01:12;;;;;;;15.80;6.00;;;13.10;99.90;;;;;;5026961;28;20434;-59
2021/09/14 03:03:40;;;;;;;31.63;6.73;;;13.10;99.90;;;;;;5029274;28;20513;-59
2021/09/14 03:06:06;;;;;;;10.17;6.00;;;13.10;99.90;;;;;;5027970;28;20456;-59
2021/09/14 03:08:35;;;;;;;11.83;5.67;;;13.10;99.90;;;;;;5027668;28;20449;-59
2021/09/14 03:11:08;;;;;;;13.90;6.70;;;13.10;99.90;;;;;;5009275;28;20246;-58
2021/09/14 03:13:35;;;;;;;17.80;6.37;;;13.00;99.90;;;;;;5041919;28;20452;-58
2021/09/14 03:16:01;;;;;;;17.57;6.80;;;13.00;99.90;;;;;;5031324;28;20911;-59
2021/09/14 03:18:26;;;;;;;16.03;5.97;;;13.00;99.90;;;;;;5026894;28;20480;-58
2021/09/14 03:20:52;;;;;;;13.57;5.97;;;12.90;99.90;;;;;;5010696;28;20204;-59
2021/09/14 03:23:18;;;;;;;27.67;6.73;;;12.90;99.90;;;;;;5028801;28;20195;-59
2021/09/14 03:25:44;;;;;;;15.23;6.10;;;12.90;99.90;;;;;;5022856;28;20518;-59
2021/09/14 03:28:11;;;;;;;14.33;5.50;;;12.90;99.90;;;;;;5033863;28;20229;-58
2021/09/14 03:30:36;;;;;;;12.13;6.10;;;12.80;99.90;;;;;;5016788;28;20265;-58
2021/09/14 03:33:03;;;;;;;12.23;5.00;;;12.90;99.90;;;;;;5014377;28;20461;-59
2021/09/14 03:35:29;;;;;;;21.50;5.87;;;12.80;99.90;;;;;;5027361;28;20310;-59
2021/09/14 03:37:54;;;;;;;51.10;8.23;;;12.80;99.90;;;;;;5031651;28;21070;-58
2021/09/14 03:40:20;;;;;;;6.87;5.87;;;12.80;99.90;;;;;;5031509;28;20208;-58
2021/09/14 03:42:46;;;;;;;6.40;5.20;;;12.80;99.90;;;;;;5031914;28;20184;-59
2021/09/14 03:45:11;;;;;;;6.23;4.67;;;12.70;99.90;;;;;;5030966;28;20297;-59
2021/09/14 03:47:37;;;;;;;5.80;5.20;;;12.80;99.90;;;;;;5031442;28;20237;-58
2021/09/14 03:50:04;;;;;;;5.13;4.57;;;12.80;99.90;;;;;;5030948;28;20274;-59
2021/09/14 03:52:30;;;;;;;6.23;5.20;;;12.80;99.90;;;;;;5028690;28;20214;-59
2021/09/14 03:54:55;;;;;;;8.00;5.37;;;12.80;99.90;;;;;;5026836;28;20430;-59
2021/09/14 03:57:21;;;;;;;11.13;5.63;;;12.80;99.90;;;;;;5027770;28;20172;-56
2021/09/14 03:59:46;;;;;;;7.63;5.07;;;12.80;99.90;;;;;;5029443;28;20196;-59
2021/09/14 04:05:24;;;;;;;5.37;4.87;;;12.80;99.90;;;;;;5016842;28;20837;-58
2021/09/14 04:07:53;;;;;;;11.13;5.63;;;12.80;99.90;;;;;;5022343;28;20421;-58
2021/09/14 04:10:19;;;;;;;15.70;5.53;;;12.80;99.90;;;;;;5026572;28;20446;-59
2021/09/14 04:12:44;;;;;;;10.70;6.27;;;12.70;99.90;;;;;;5029850;28;20925;-60
2021/09/14 04:15:11;;;;;;;19.23;5.83;;;12.70;99.90;;;;;;5024636;28;20172;-59
2021/09/14 04:17:36;;;;;;;18.13;5.23;;;12.60;99.90;;;;;;5021829;28;20171;-60
2021/09/14 04:20:03;;;;;;;5.70;5.10;;;12.60;99.90;;;;;;5027269;28;20446;-58
2021/09/14 04:22:29;;;;;;;10.63;5.40;;;12.50;99.90;;;;;;5020902;28;20254;-60
2021/09/14 04:24:54;;;;;;;7.63;4.73;;;12.50;99.90;;;;;;5029821;28;20537;-59
2021/09/14 04:27:20;;;;;;;6.53;5.33;;;12.50;99.90;;;;;;5029945;28;20672;-59
2021/09/14 04:29:47;;;;;;;9.30;5.27;;;12.50;99.90;;;;;;5027504;28;20204;-59
2021/09/14 04:32:12;;;;;;;6.73;5.23;;;12.50;99.90;;;;;;5034453;28;20672;-59
2021/09/14 04:34:38;;;;;;;7.60;5.37;;;12.40;99.90;;;;;;5017557;28;20449;-58
2021/09/14 04:37:04;;;;;;;5.33;4.47;;;12.40;99.90;;;;;;5030469;28;20176;-60
2021/09/14 04:39:29;;;;;;;6.30;5.07;;;12.40;99.90;;;;;;5034621;28;20190;-59
2021/09/14 04:41:55;;;;;;;9.10;5.20;;;12.40;99.90;;;;;;5032323;28;20180;-59
2021/09/14 04:44:20;;;;;;;5.30;4.80;;;12.40;99.90;;;;;;5021142;28;20172;-60
2021/09/14 04:46:47;;;;;;;5.53;4.43;;;12.40;99.90;;;;;;5034435;28;20551;-57
2021/09/14 04:49:12;;;;;;;7.10;5.30;;;12.40;99.90;;;;;;5028750;28;20559;-59
2021/09/14 04:51:38;;;;;;;9.33;4.60;;;12.40;99.90;;;;;;5026178;28;20814;-59
2021/09/14 04:54:04;;;;;;;12.03;5.00;;;12.30;99.90;;;;;;5026569;28;20202;-58
2021/09/14 04:56:30;;;;;;;10.13;5.10;;;12.30;99.90;;;;;;5027110;28;20572;-58
2021/09/14 04:58:56;;;;;;;7.30;5.37;;;12.20;99.90;;;;;;5025122;28;20755;-57
2021/09/14 05:01:21;;;;;;;10.43;6.20;;;12.20;99.90;;;;;;5023980;28;20541;-57
2021/09/14 05:03:48;;;;;;;9.57;6.30;;;12.20;99.90;;;;;;5027948;28;20180;-58
2021/09/14 05:06:14;;;;;;;12.43;5.80;;;12.20;99.90;;;;;;5019882;28;20638;-59
2021/09/14 05:08:40;;;;;;;10.07;5.90;;;12.20;99.90;;;;;;5026413;28;20434;-59
2021/09/14 05:11:06;;;;;;;6.40;5.50;;;12.20;99.90;;;;;;5011804;28;20557;-58
2021/09/14 05:13:33;;;;;;;13.20;5.60;;;12.20;99.90;;;;;;5020497;28;20460;-58
2021/09/14 05:15:59;;;;;;;8.70;5.40;;;12.10;99.90;;;;;;5025436;28;20521;-58
2021/09/14 05:18:25;;;;;;;10.17;5.50;;;12.10;99.90;;;;;;5021302;28;20525;-58
2021/09/14 05:20:52;;;;;;;5.63;5.13;;;12.10;99.90;;;;;;5022471;28;20773;-60
2021/09/14 05:23:30;;;;;;;8.30;5.47;;;12.10;99.90;;;;;;5009323;28;20430;-58
2021/09/14 05:25:57;;;;;;;20.23;6.50;;;12.10;99.90;;;;;;5038407;28;20433;-58
2021/09/14 05:28:23;;;;;;;10.47;5.30;;;12.20;99.90;;;;;;5036943;28;20418;-59
2021/09/14 05:30:49;;;;;;;11.43;5.43;;;12.20;99.90;;;;;;5026620;28;20553;-59
2021/09/14 05:33:15;;;;;;;7.40;5.10;;;12.10;99.90;;;;;;5025075;28;20167;-60
2021/09/14 05:35:45;;;;;;;11.90;5.60;;;12.20;99.90;;;;;;5027423;28;20441;-58
2021/09/14 05:38:15;;;;;;;9.80;5.23;;;12.20;99.90;;;;;;5015857;28;20436;-59
2021/09/14 05:40:41;;;;;;;7.87;5.77;;;12.20;99.90;;;;;;5026886;28;20768;-59
2021/09/14 05:43:06;;;;;;;8.10;5.17;;;12.30;99.90;;;;;;5035827;28;20461;-66
2021/09/14 05:45:32;;;;;;;6.00;5.40;;;12.30;99.90;;;;;;5034273;28;20212;-61
2021/09/14 05:47:59;;;;;;;5.50;5.00;;;12.30;99.90;;;;;;5018814;28;20176;-60
2021/09/14 05:50:25;;;;;;;8.80;5.40;;;12.30;99.90;;;;;;5016891;28;20465;-60
2021/09/14 05:52:51;;;;;;;6.87;5.20;;;12.40;99.90;;;;;;5037595;28;20454;-60
2021/09/14 05:55:17;;;;;;;7.17;5.20;;;12.40;99.90;;;;;;5024231;28;20172;-60
2021/09/14 05:57:43;;;;;;;7.90;6.07;;;12.40;99.90;;;;;;5035740;28;20464;-59
2021/09/14 06:00:09;;;;;;;10.33;6.00;;;12.40;99.90;;;;;;5032101;28;20466;-60
2021/09/14 06:02:35;;;;;;;8.60;5.70;;;12.50;99.90;;;;;;5030916;28;20184;-60
2021/09/14 06:05:01;;;;;;;5.90;4.30;;;12.50;99.90;;;;;;5032458;28;20434;-60
2021/09/14 06:07:27;;;;;;;4.93;4.43;;;12.60;99.90;;;;;;5025276;28;20442;-59
2021/09/14 06:09:53;;;;;;;4.60;4.20;;;12.60;99.90;;;;;;5029603;28;20200;-60
2021/09/14 06:12:18;;;;;;;5.83;4.40;;;12.60;99.90;;;;;;5027724;28;20200;-58
2021/09/14 06:14:44;;;;;;;5.30;4.77;;;12.70;99.90;;;;;;5027884;28;20367;-60
2021/09/14 06:17:10;;;;;;;6.10;4.47;;;12.80;99.90;;;;;;5027260;28;20641;-61
2021/09/14 06:19:35;;;;;;;6.37;4.83;;;12.90;99.90;;;;;;5014154;28;20630;-59
2021/09/14 06:22:02;;;;;;;6.40;4.07;;;13.00;99.90;;;;;;5011735;28;20190;-59
2021/09/14 06:24:28;;;;;;;4.83;4.33;;;13.00;99.90;;;;;;5041837;28;20191;-60
2021/09/14 06:26:54;;;;;;;4.80;4.30;;;13.10;99.90;;;;;;5029438;28;20426;-61
2021/09/14 06:29:19;;;;;;;7.03;4.20;;;13.20;99.90;;;;;;5049373;28;20219;-59
2021/09/14 06:31:45;;;;;;;9.10;5.03;;;13.20;99.90;;;;;;5044449;28;20219;-59
2021/09/14 06:34:10;;;;;;;5.17;4.50;;;13.30;99.90;;;;;;5039759;28;20188;-60
2021/09/14 06:36:36;;;;;;;4.80;4.40;;;13.30;99.90;;;;;;5028869;28;20269;-58
2021/09/14 06:39:02;;;;;;;5.20;4.37;;;13.40;99.90;;;;;;5031355;28;20590;-59
2021/09/14 06:41:28;;;;;;;6.33;4.87;;;13.40;99.90;;;;;;5021098;28;20211;-58
2021/09/14 06:43:54;;;;;;;4.73;4.27;;;13.40;99.90;;;;;;5026327;28;20190;-59
2021/09/14 06:46:20;;;;;;;4.90;4.10;;;13.50;99.90;;;;;;5006062;28;20445;-59
2021/09/14 06:48:46;;;;;;;4.30;3.90;;;13.60;99.90;;;;;;5025251;28;20431;-60
2021/09/14 06:51:11;;;;;;;9.23;5.60;;;13.60;99.90;;;;;;5019811;28;20541;-58
2021/09/14 06:53:37;;;;;;;5.63;4.93;;;13.60;99.90;;;;;;5007378;28;20266;-60
2021/09/14 06:56:03;;;;;;;7.37;6.23;;;13.70;99.90;;;;;;5013024;28;20186;-59
2021/09/14 06:58:29;;;;;;;12.53;7.20;;;13.80;99.90;;;;;;5012222;28;20450;-59
2021/09/14 07:00:54;;;;;;;7.47;5.97;;;13.90;99.90;;;;;;5024492;28;20445;-58
2021/09/14 07:03:20;;;;;;;7.63;5.97;;;13.90;99.90;;;;;;5030799;28;20538;-59
2021/09/14 07:05:46;;;;;;;11.23;6.43;;;14.00;99.90;;;;;;5031772;28;20222;-59
2021/09/14 07:08:13;;;;;;;9.60;6.50;;;14.00;99.90;;;;;;5030995;28;20179;-59
2021/09/14 07:10:39;;;;;;;9.20;6.60;;;14.10;99.90;;;;;;5032808;28;20265;-58
2021/09/14 07:13:05;;;;;;;12.00;7.13;;;14.20;99.90;;;;;;5031092;28;20446;-58
2021/09/14 07:15:30;;;;;;;14.60;10.67;;;14.20;99.90;;;;;;5027758;28;20495;-59
2021/09/14 07:17:56;;;;;;;14.40;8.80;;;14.30;99.90;;;;;;5023933;28;20172;-59
2021/09/14 07:20:22;;;;;;;15.10;9.30;;;14.40;99.90;;;;;;5032545;28;20191;-58
2021/09/14 07:22:47;;;;;;;12.60;9.30;;;14.50;99.90;;;;;;5030948;28;20187;-59
2021/09/14 07:25:13;;;;;;;12.97;9.43;;;14.60;99.90;;;;;;5012535;28;20172;-59
2021/09/14 07:27:39;;;;;;;12.70;8.53;;;14.60;99.90;;;;;;5029206;28;20549;-60
2021/09/14 07:30:05;;;;;;;16.70;9.43;;;14.70;99.90;;;;;;5030903;28;20309;-58
2021/09/14 07:32:31;;;;;;;30.40;13.00;;;14.90;99.90;;;;;;5030620;28;20196;-60
2021/09/14 07:34:57;;;;;;;28.03;14.70;;;15.00;99.90;;;;;;5032639;28;20981;-58
2021/09/14 07:37:22;;;;;;;29.90;17.87;;;15.00;99.90;;;;;;5031866;28;20575;-59
2021/09/14 07:39:48;;;;;;;26.00;16.20;;;15.10;99.90;;;;;;5031587;28;20188;-58
2021/09/14 07:42:13;;;;;;;28.23;14.40;;;15.20;99.90;;;;;;5030989;28;20645;-60
2021/09/14 07:44:39;;;;;;;22.90;13.60;;;15.30;99.90;;;;;;5031816;28;20192;-59
2021/09/14 07:47:05;;;;;;;11.17;8.13;;;15.40;99.90;;;;;;5014461;28;20556;-59
2021/09/14 07:49:31;;;;;;;10.33;7.70;;;15.50;99.90;;;;;;5025658;28;20218;-58
2021/09/14 07:51:56;;;;;;;11.50;8.93;;;15.50;99.90;;;;;;5013021;28;20509;-59
2021/09/14 07:54:22;;;;;;;17.30;10.47;;;15.70;99.90;;;;;;5031387;28;20184;-60
2021/09/14 07:56:48;;;;;;;12.43;8.13;;;15.70;99.90;;;;;;5031765;28;20270;-59
2021/09/14 07:59:13;;;;;;;8.83;6.17;;;15.90;99.90;;;;;;5030274;28;20614;-58
2021/09/14 08:01:39;;;;;;;7.20;5.60;;;16.00;99.90;;;;;;5031963;28;20183;-60
2021/09/14 08:04:05;;;;;;;8.70;5.43;;;16.10;99.90;;;;;;5031919;28;20559;-59
2021/09/14 08:06:31;;;;;;;10.40;5.63;;;16.20;99.90;;;;;;5007681;28;20210;-59
2021/09/14 08:08:57;;;;;;;8.03;5.47;;;16.30;99.90;;;;;;5030078;28;21163;-60
2021/09/14 08:11:22;;;;;;;6.10;5.50;;;16.40;99.90;;;;;;5031525;28;20203;-59
2021/09/14 08:13:50;;;;;;;7.87;5.67;;;16.60;99.90;;;;;;5031171;28;20243;-59
2021/09/14 08:16:17;;;;;;;7.20;5.60;;;16.70;99.90;;;;;;5031896;28;20164;-58
2021/09/14 08:18:43;;;;;;;8.07;5.90;;;16.90;99.90;;;;;;4997811;28;20431;-59
2021/09/14 08:21:08;;;;;;;11.23;5.67;;;17.00;99.90;;;;;;5029163;28;20851;-60
2021/09/14 08:23:34;;;;;;;8.33;6.27;;;17.20;99.90;;;;;;5027548;28;20547;-59
2021/09/14 08:26:00;;;;;;;8.77;5.70;;;17.40;99.90;;;;;;5030606;28;20184;-60
2021/09/14 08:28:26;;;;;;;6.00;5.40;;;17.60;99.90;;;;;;5030306;28;20164;-59
2021/09/14 08:30:52;;;;;;;8.17;6.73;;;17.70;99.90;;;;;;5052512;22;20482;-62
2021/09/14 08:33:18;;;;;;;10.13;7.20;;;17.90;99.90;;;;;;5030908;28;20981;-62
2021/09/14 08:35:44;;;;;;;9.00;7.03;;;18.00;99.90;;;;;;5026055;28;20199;-61
2021/09/14 08:38:09;;;;;;;8.10;6.10;;;18.00;99.90;;;;;;5021423;28;20666;-62
2021/09/14 08:40:35;;;;;;;9.00;6.37;;;18.00;99.90;;;;;;5029434;28;20422;-62
2021/09/14 08:43:02;;;;;;;11.80;6.50;;;18.10;99.90;;;;;;5030742;28;20544;-62
2021/09/14 08:45:28;;;;;;;6.57;5.83;;;18.20;99.90;;;;;;5003889;28;20185;-62
2021/09/14 08:47:54;;;;;;;8.17;6.10;;;18.30;99.90;;;;;;5004099;28;20420;-61
2021/09/14 08:50:24;;;;;;;6.63;5.67;;;18.40;99.90;;;;;;5010997;28;20192;-62
2021/09/14 08:52:50;;;;;;;7.10;5.77;;;18.60;99.90;;;;;;5005659;28;20518;-62
2021/09/14 08:55:16;;;;;;;14.97;7.30;;;18.80;99.90;;;;;;4991182;28;20755;-63
2021/09/14 08:57:52;;;;;;;8.43;7.30;;;19.00;99.90;;;;;;5010912;28;20478;-62
2021/09/14 09:00:38;;;;;;;9.20;7.10;;;19.10;99.90;;;;;;5007258;28;20196;-62
2021/09/14 09:03:04;;;;;;;12.43;7.67;;;19.30;99.90;;;;;;5011309;28;20461;-62
2021/09/14 09:05:32;;;;;;;10.00;7.30;;;19.40;99.90;;;;;;5010220;28;20409;-62
2021/09/14 09:07:58;;;;;;;12.00;7.87;;;19.40;99.90;;;;;;5009540;28;20426;-62
2021/09/14 09:10:24;;;;;;;12.27;7.90;;;19.50;99.90;;;;;;5000290;28;20513;-62
2021/09/14 09:12:50;;;;;;;9.27;7.30;;;19.60;99.90;;;;;;4990449;28;20538;-63
2021/09/14 09:15:25;;;;;;;11.37;7.30;;;19.60;99.90;;;;;;5005760;28;20459;-62
2021/09/14 09:18:02;;;;;;;9.93;7.70;;;19.70;99.90;;;;;;4986206;28;20428;-62
2021/09/14 09:20:29;;;;;;;10.77;6.77;;;19.80;99.90;;;;;;4990639;28;20470;-62
2021/09/14 09:23:00;;;;;;;16.57;7.73;;;19.90;99.90;;;;;;4973350;28;20416;-62
2021/09/14 09:25:26;;;;;;;10.23;7.07;;;20.00;99.90;;;;;;5004210;28;20805;-62
2021/09/14 09:28:05;;;;;;;10.73;7.17;;;20.10;99.90;;;;;;5004445;28;20427;-62
2021/09/14 09:30:34;;;;;;;10.13;7.27;;;20.20;99.90;;;;;;5008603;28;20254;-62
2021/09/14 09:33:03;;;;;;;11.60;7.40;;;20.30;99.90;;;;;;5005251;28;20583;-62
2021/09/14 09:35:33;;;;;;;15.13;7.80;;;20.40;99.90;;;;;;4990493;28;20440;-62
2021/09/14 09:38:00;;;;;;;23.27;8.57;;;20.50;99.90;;;;;;4991919;28;20978;-62
2021/09/14 09:40:35;;;;;;;10.10;7.83;;;20.60;99.90;;;;;;5007192;28;20523;-62
2021/09/14 09:43:06;;;;;;;11.50;8.33;;;20.80;99.90;;;;;;5008928;28;20477;-63
2021/09/14 09:45:33;;;;;;;10.87;7.77;;;21.00;99.90;;;;;;5009247;28;20549;-62
2021/09/14 09:48:01;;;;;;;10.47;7.40;;;21.30;99.90;;;;;;5009574;28;20411;-62
2021/09/14 09:50:26;;;;;;;9.50;6.80;;;21.50;99.90;;;;;;5007506;28;20999;-62
2021/09/14 09:52:53;;;;;;;11.83;6.70;;;21.80;99.90;;;;;;4991837;28;20550;-62
2021/09/14 09:55:20;;;;;;;12.30;7.07;;;21.90;99.90;;;;;;5011507;28;20725;-61
2021/09/14 09:57:47;;;;;;;7.70;6.57;;;22.10;98.30;;;;;;5009523;28;20442;-63
2021/09/14 10:00:13;;;;;;;11.67;6.63;;;22.20;97.10;;;;;;5007665;28;20537;-63
2021/09/14 10:03:00;;;;;;;10.03;7.13;;;22.40;98.00;;;;;;5009457;28;20982;-62
2021/09/14 10:05:29;;;;;;;9.03;7.10;;;22.60;97.90;;;;;;5009611;28;20469;-62
2021/09/14 10:07:56;;;;;;;9.93;6.10;;;22.70;96.80;;;;;;5008254;28;20499;-62
2021/09/14 10:10:34;;;;;;;7.87;5.80;;;22.90;97.40;;;;;;5008230;28;20533;-63
2021/09/14 10:13:09;;;;;;;8.10;6.03;;;23.00;95.70;;;;;;5003239;28;20451;-63
2021/09/14 10:15:43;;;;;;;7.07;5.27;;;23.20;93.20;;;;;;5006174;28;20439;-62
2021/09/14 10:18:10;;;;;;;6.03;5.20;;;23.40;92.50;;;;;;5008462;28;20435;-63
2021/09/14 10:20:44;;;;;;;6.40;4.70;;;23.60;91.30;;;;;;5008803;28;20459;-62
2021/09/14 10:23:19;;;;;;;4.73;4.30;;;23.80;90.50;;;;;;5007735;28;20423;-63
2021/09/14 10:25:50;;;;;;;8.77;5.37;;;24.00;81.50;;;;;;4998526;28;20441;-64
2021/09/14 10:28:16;;;;;;;7.50;4.83;;;24.10;79.20;;;;;;5007599;28;20510;-63
2021/09/14 10:30:46;;;;;;;4.93;4.43;;;24.10;68.90;;;;;;5006714;28;20509;-62
2021/09/14 10:33:18;;;;;;;6.47;4.60;;;24.00;69.10;;;;;;5002500;28;20458;-63
2021/09/14 10:35:46;;;;;;;6.83;5.23;;;24.00;67.00;;;;;;5002531;28;20521;-63
2021/09/14 10:38:13;;;;;;;5.97;4.83;;;24.00;64.80;;;;;;4999395;28;20427;-63
2021/09/14 10:40:41;;;;;;;7.10;5.03;;;24.10;65.60;;;;;;4988485;28;20470;-63
2021/09/14 10:43:08;;;;;;;8.73;5.23;;;24.30;65.70;;;;;;5005862;28;20477;-63
2021/09/14 10:45:42;;;;;;;5.47;4.97;;;24.40;66.50;;;;;;4987200;28;20420;-61
2021/09/14 10:48:22;;;;;;;7.90;5.50;;;24.70;65.70;;;;;;5002847;28;20443;-54
2021/09/14 10:50:47;;;;;;;5.07;4.43;;;24.80;62.30;;;;;;5002766;28;20450;-57
2021/09/14 10:53:26;;;;;;;10.90;5.87;;;24.90;62.30;;;;;;5007525;28;20474;-57
2021/09/14 10:55:54;;;;;;;10.47;5.50;;;25.00;65.30;;;;;;5006717;28;20588;-57
2021/09/14 10:58:20;;;;;;;6.30;5.70;;;25.20;66.20;;;;;;5008162;28;20430;-58
2021/09/14 11:00:48;;;;;;;6.87;5.60;;;25.20;63.10;;;;;;5003520;28;20459;-58
2021/09/14 11:03:15;;;;;;;8.50;5.13;;;25.20;64.80;;;;;;5004750;28;20176;-58
2021/09/14 11:05:47;;;;;;;6.10;4.30;;;25.20;60.70;;;;;;5002489;28;21051;-58
2021/09/14 11:08:14;;;;;;;4.63;4.10;;;25.20;59.90;;;;;;4987311;28;20419;-59
2021/09/14 11:10:43;;;;;;;5.20;4.40;;;25.30;59.80;;;;;;4999204;28;20460;-58
2021/09/14 11:13:17;;;;;;;8.30;4.73;;;25.30;58.80;;;;;;4997410;28;20963;-59
2021/09/14 11:15:43;;;;;;;5.80;4.60;;;25.30;60.40;;;;;;5003339;28;20931;-63
2021/09/14 11:18:09;;;;;;;6.00;5.40;;;25.40;60.00;;;;;;5004177;28;20432;-61
2021/09/14 11:20:36;;;;;;;9.73;5.07;;;25.40;60.90;;;;;;5004934;28;20539;-61
2021/09/14 11:23:04;;;;;;;10.10;4.53;;;25.60;60.10;;;;;;5000850;28;20177;-59
2021/09/14 11:25:30;;;;;;;5.63;4.97;;;25.60;60.90;;;;;;5004074;28;20622;-60
2021/09/14 11:27:56;;;;;;;5.50;4.90;;;25.70;59.90;;;;;;5003759;28;20431;-61
2021/09/14 11:30:22;;;;;;;8.25;5.20;;;25.60;59.20;;;;;;4967024;28;1123738;-61
2021/09/14 11:32:48;;;;;;;12.67;5.50;;;25.40;59.20;;;;;;4999683;28;20286;-60
2021/09/14 11:35:15;;;;;;;7.20;5.13;;;25.30;60.30;;;;;;5005863;28;20491;-61
2021/09/14 11:37:41;;;;;;;8.93;5.40;;;25.20;62.80;;;;;;5002606;28;20319;-62
2021/09/14 11:40:19;;;;;;;5.20;4.70;;;25.10;63.70;;;;;;4999327;28;20531;-60
2021/09/14 11:42:59;;;;;;;6.90;4.47;;;24.90;63.00;;;;;;4998067;28;22023;-58
2021/09/14 11:45:27;;;;;;;7.93;5.53;;;24.80;63.80;;;;;;5003421;28;20466;-58
2021/09/14 11:47:54;;;;;;;7.47;5.07;;;24.70;65.20;;;;;;5001410;28;20431;-57
2021/09/14 11:50:33;;;;;;;8.20;4.97;;;24.60;65.80;;;;;;5002864;28;20469;-60
2021/09/14 11:53:07;;;;;;;5.97;5.23;;;24.70;67.00;;;;;;5003197;28;20927;-60
2021/09/14 11:55:33;;;;;;;11.23;4.93;;;24.80;64.80;;;;;;5009943;28;20502;-58
2021/09/14 11:58:00;;;;;;;7.77;5.47;;;24.90;64.20;;;;;;5001874;28;21175;-61
2021/09/14 12:00:44;;;;;;;6.20;5.10;;;24.80;63.30;;;;;;4994745;28;20823;-61
2021/09/14 12:03:11;;;;;;;6.93;5.20;;;24.70;64.10;;;;;;4991689;28;20493;-62
2021/09/14 12:05:37;;;;;;;8.00;5.70;;;24.60;65.30;;;;;;5001684;28;20438;-59
2021/09/14 12:08:09;;;;;;;10.90;6.27;;;24.50;66.60;;;;;;5000654;28;20431;-63
2021/09/14 12:10:48;;;;;;;6.47;5.77;;;24.40;67.00;;;;;;5002536;28;20455;-61
2021/09/14 12:13:16;;;;;;;8.53;5.53;;;24.40;67.90;;;;;;4999645;28;20467;-62
2021/09/14 12:15:42;;;;;;;6.80;5.37;;;24.40;68.40;;;;;;5005112;28;20899;-61
2021/09/14 12:18:08;;;;;;;7.43;5.73;;;24.30;70.70;;;;;;5000443;28;20434;-64
2021/09/14 12:20:34;;;;;;;7.80;6.50;;;24.30;71.20;;;;;;5001983;28;20207;-62
2021/09/14 12:22:59;;;;;;;11.20;6.10;;;24.40;71.70;;;;;;5006875;28;20187;-61
2021/09/14 12:25:25;;;;;;;6.20;5.33;;;24.50;70.40;;;;;;4997839;28;20184;-61
2021/09/14 12:27:51;;;;;;;7.80;5.87;;;24.60;71.00;;;;;;5000695;28;20188;-61
2021/09/14 12:30:20;;;;;;;8.93;6.00;;;24.80;68.00;;;;;;5006982;28;20442;-61
2021/09/14 12:32:46;;;;;;;8.00;6.20;;;25.00;67.50;;;;;;5005285;28;20466;-61
2021/09/14 12:35:11;;;;;;;10.77;5.70;;;25.30;67.80;;;;;;5010243;28;20437;-61
2021/09/14 12:37:37;;;;;;;9.17;5.77;;;25.70;64.90;;;;;;5003468;28;20183;-60
2021/09/14 12:40:03;;;;;;;7.07;5.53;;;26.00;63.50;;;;;;5008864;28;20295;-61
2021/09/14 12:42:29;;;;;;;6.87;4.97;;;26.40;61.50;;;;;;5001068;28;20206;-62
2021/09/14 12:44:56;;;;;;;6.30;4.77;;;26.70;59.10;;;;;;5000411;28;20434;-60
2021/09/14 12:47:22;;;;;;;10.33;5.43;;;26.90;57.40;;;;;;5005940;28;20175;-62
2021/09/14 12:49:47;;;;;;;7.90;5.57;;;26.90;55.80;;;;;;5009128;28;20437;-61
2021/09/14 12:52:13;;;;;;;7.90;4.90;;;26.80;55.60;;;;;;5002762;28;20558;-62
2021/09/14 12:54:39;;;;;;;5.10;4.60;;;26.80;56.50;;;;;;5001548;28;20574;-64
2021/09/14 12:57:04;;;;;;;6.30;4.20;;;26.80;55.80;;;;;;5006585;28;20176;-62
2021/09/14 12:59:30;;;;;;;7.10;4.60;;;26.70;56.40;;;;;;5006171;28;20202;-61
2021/09/14 13:01:55;;;;;;;6.20;5.10;;;26.50;56.70;;;;;;5005193;28;20299;-61
2021/09/14 13:04:21;;;;;;;7.03;4.80;;;26.30;58.60;;;;;;5002091;28;20523;-60
2021/09/14 13:06:47;;;;;;;6.67;4.67;;;26.20;58.40;;;;;;5006170;28;20172;-63
2021/09/14 13:09:13;;;;;;;5.50;4.50;;;26.10;58.40;;;;;;5006885;28;20656;-63
2021/09/14 13:11:41;;;;;;;5.57;4.90;;;26.20;59.30;;;;;;5000523;28;20207;-60
2021/09/14 13:16:51;;;;;;;6.60;4.10;;;26.30;58.00;;;;;;5000980;28;20429;-59
2021/09/14 13:19:16;;;;;;;5.50;4.90;;;26.20;57.90;;;;;;5006111;28;20806;-64
2021/09/14 13:21:42;;;;;;;5.83;4.33;;;26.10;57.70;;;;;;5002511;28;20203;-61
2021/09/14 13:24:08;;;;;;;6.63;5.00;;;26.00;57.40;;;;;;5000041;28;20817;-61
2021/09/14 13:26:33;;;;;;;7.80;4.60;;;25.80;57.80;;;;;;4983938;28;20523;-59
2021/09/14 13:28:59;;;;;;;6.77;4.70;;;25.90;58.20;;;;;;4997566;28;20604;-57
2021/09/14 13:31:25;;;;;;;6.90;4.93;;;25.80;58.20;;;;;;5002621;28;20222;-59
2021/09/14 13:33:50;;;;;;;5.43;4.93;;;25.90;60.00;;;;;;5005896;28;20609;-59
2021/09/14 13:36:16;;;;;;;6.30;5.47;;;25.90;61.20;;;;;;4998815;28;20180;-60
2021/09/14 13:38:43;;;;;;;8.53;5.50;;;25.90;61.10;;;;;;5000346;28;21137;-59